Time;durP1;ratioP1;P1;durP2;ratioP2;P2;SDS_P1;SDS_P2;PMS_P1;PMS_P2;Temp;Humidity;BMP_temperature;BMP_pressure;BME280_temperature;BME280_humidity;BME280_pressure;Samples;Min_cycle;Max_cycle;Signal;HPM_P1;HPM_P2
2022/11/05 00:09:32;;;;;;;7.32;2.67;;;;;;;5.57;100.00;101658.16;4982870;28;20474;-74
2022/11/05 00:17:35;;;;;;;7.03;2.67;;;;;;;5.46;100.00;101656.44;4985055;28;20037;-74
2022/11/05 00:20:00;;;;;;;13.88;2.88;;;;;;;5.44;100.00;101660.34;4982489;28;20077;-74
2022/11/05 00:25:18;;;;;;;4.43;2.70;;;;;;;5.41;100.00;101661.47;4982723;28;20041;-73
2022/11/05 00:27:52;;;;;;;5.80;2.72;;;;;;;5.41;100.00;101663.31;4983952;28;20057;-74
2022/11/05 00:30:22;;;;;;;10.40;2.83;;;;;;;5.40;100.00;101673.31;4981801;28;20037;-75
2022/11/05 00:32:48;;;;;;;11.38;2.90;;;;;;;5.36;100.00;101673.75;4986182;28;20034;-73
2022/11/05 00:35:15;;;;;;;5.75;2.80;;;;;;;5.33;100.00;101676.75;4981659;28;20035;-73
2022/11/05 00:37:41;;;;;;;10.43;4.90;;;;;;;5.28;100.00;101687.22;4981099;28;20502;-73
2022/11/05 00:40:07;;;;;;;9.75;5.32;;;;;;;5.24;100.00;101683.91;4985727;28;20036;-73
2022/11/05 00:45:17;;;;;;;4.45;3.00;;;;;;;5.22;100.00;101694.06;4984311;28;20060;-73
2022/11/05 00:50:27;;;;;;;10.23;4.13;;;;;;;5.19;100.00;101698.91;4983628;28;20037;-73
2022/11/05 00:52:55;;;;;;;5.68;3.30;;;;;;;5.16;100.00;101696.47;4982575;28;20030;-73
2022/11/05 00:55:23;;;;;;;10.23;3.45;;;;;;;5.16;100.00;101707.34;4997579;28;20026;-73
2022/11/05 00:57:48;;;;;;;6.18;3.50;;;;;;;5.11;100.00;101705.06;4984498;28;20031;-72
2022/11/05 01:00:14;;;;;;;9.43;3.47;;;;;;;5.11;100.00;101706.91;4982814;28;20508;-72
2022/11/05 01:02:39;;;;;;;23.45;9.13;;;;;;;5.07;100.00;101703.63;4998172;28;20561;-73
2022/11/05 01:05:04;;;;;;;9.00;4.40;;;;;;;5.08;100.00;101707.19;4982554;28;20034;-73
2022/11/05 01:07:30;;;;;;;12.23;4.53;;;;;;;5.02;100.00;101711.31;4983199;28;20496;-73
2022/11/05 01:09:55;;;;;;;10.48;4.93;;;;;;;5.00;100.00;101713.34;4984108;28;20046;-73
2022/11/05 01:12:21;;;;;;;7.88;5.03;;;;;;;5.03;100.00;101720.34;4980989;28;20114;-72
2022/11/05 01:14:46;;;;;;;9.82;4.55;;;;;;;4.97;100.00;101716.31;4979812;28;20030;-73
2022/11/05 01:17:11;;;;;;;11.82;5.03;;;;;;;4.95;100.00;101720.16;4984532;28;20469;-72
2022/11/05 01:19:38;;;;;;;8.18;4.47;;;;;;;4.97;100.00;101718.19;4983129;28;20038;-71
2022/11/05 01:22:03;;;;;;;8.93;4.00;;;;;;;4.93;100.00;101714.03;4984142;28;20505;-72
2022/11/05 01:24:28;;;;;;;7.38;3.65;;;;;;;4.91;100.00;101716.88;4981321;28;20032;-73
2022/11/05 01:26:54;;;;;;;9.45;3.75;;;;;;;4.88;100.00;101710.88;4981101;28;20133;-73
2022/11/05 01:29:19;;;;;;;10.30;3.60;;;;;;;4.87;100.00;101717.31;4981795;28;20037;-73
2022/11/05 01:31:45;;;;;;;6.57;3.22;;;;;;;4.83;100.00;101714.03;4983106;28;20027;-73
2022/11/05 01:34:10;;;;;;;10.50;3.40;;;;;;;4.86;100.00;101712.88;4983754;28;20422;-73
2022/11/05 01:36:35;;;;;;;8.82;2.70;;;;;;;4.86;100.00;101707.47;4983147;28;20019;-73
2022/11/05 01:39:01;;;;;;;11.40;3.03;;;;;;;4.86;100.00;101707.47;4982402;28;20035;-74
2022/11/05 01:41:26;;;;;;;7.07;3.15;;;;;;;4.86;100.00;101712.88;4981273;28;20031;-73
2022/11/05 01:43:55;;;;;;;12.70;2.83;;;;;;;4.81;100.00;101707.84;4981267;28;20082;-72
2022/11/05 01:46:26;;;;;;;12.20;2.50;;;;;;;4.79;100.00;101715.28;4982748;28;20029;-73
2022/11/05 01:48:54;;;;;;;12.75;3.33;;;;;;;4.81;100.00;101712.44;4979123;28;20221;-73
2022/11/05 01:51:25;;;;;;;3.20;2.55;;;;;;;4.80;100.00;101716.16;4982292;28;20084;-72
2022/11/05 01:54:08;;;;;;;10.93;3.05;;;;;;;4.75;100.00;101708.41;4983196;28;20180;-73
2022/11/05 01:56:33;;;;;;;8.73;2.50;;;;;;;4.69;100.00;101708.09;4983990;28;20026;-72
2022/11/05 01:59:09;;;;;;;5.25;2.67;;;;;;;4.67;100.00;101705.56;4984773;28;20117;-73
2022/11/05 02:01:34;;;;;;;4.90;2.60;;;;;;;4.67;100.00;101707.41;4980699;28;20041;-72
2022/11/05 02:04:07;;;;;;;3.17;2.50;;;;;;;4.66;100.00;101705.69;4984957;28;20034;-72
2022/11/05 02:06:36;;;;;;;5.20;2.05;;;;;;;4.61;100.00;101702.53;4984014;28;20030;-72
2022/11/05 02:09:06;;;;;;;12.13;2.97;;;;;;;4.58;100.00;101708.22;4980348;28;20057;-72
2022/11/05 02:11:32;;;;;;;4.10;2.55;;;;;;;4.56;100.00;101708.38;4981459;28;20070;-73
2022/11/05 02:13:57;;;;;;;3.10;2.55;;;;;;;4.58;100.00;101706.38;4984131;28;20062;-72
2022/11/05 02:16:44;;;;;;;5.30;2.97;;;;;;;4.60;100.00;101709.78;4996187;28;20035;-72
2022/11/05 02:19:32;;;;;;;21.85;3.17;;;;;;;4.55;100.00;101713.94;4985083;28;20070;-74
2022/11/05 02:22:35;;;;;;;9.18;2.67;;;;;;;4.49;100.00;101717.19;4988536;28;20058;-72
2022/11/05 02:25:01;;;;;;;5.47;2.53;;;;;;;4.48;100.00;101715.50;4985828;28;20038;-74
2022/11/05 02:27:48;;;;;;;4.80;2.20;;;;;;;4.44;100.00;101714.03;4985211;28;20022;-74
2022/11/05 02:30:35;;;;;;;5.20;2.38;;;;;;;4.42;100.00;101713.28;4986567;28;20092;-74
2022/11/05 02:33:29;;;;;;;3.10;1.92;;;;;;;4.41;100.00;101711.59;4984105;28;20038;-74
2022/11/05 02:35:54;;;;;;;4.93;1.95;;;;;;;4.40;100.00;101712.59;4984157;28;20043;-74
2022/11/05 02:38:50;;;;;;;6.90;2.30;;;;;;;4.38;100.00;101718.13;4985049;28;20057;-74
2022/11/05 02:41:33;;;;;;;5.57;2.28;;;;;;;4.36;100.00;101708.41;4986753;28;20136;-74
2022/11/05 02:44:36;;;;;;;3.63;2.30;;;;;;;4.37;100.00;101712.84;4986670;28;20030;-74
2022/11/05 02:47:25;;;;;;;4.22;2.65;;;;;;;4.39;100.00;101713.59;4965211;28;20069;-74
2022/11/05 02:50:05;;;;;;;6.75;2.20;;;;;;;4.44;100.00;101720.31;4986491;28;20453;-74
2022/11/05 02:52:58;;;;;;;5.20;2.25;;;;;;;4.56;100.00;101719.22;4984606;28;20027;-74
2022/11/05 02:55:45;;;;;;;7.20;2.42;;;;;;;4.71;100.00;101722.41;4982576;28;20393;-72
2022/11/05 02:58:10;;;;;;;6.68;2.72;;;;;;;4.94;100.00;101723.88;4981700;28;20035;-74
2022/11/05 03:00:55;;;;;;;9.90;2.58;;;;;;;5.00;100.00;101724.19;4987507;28;20040;-74
2022/11/05 03:03:38;;;;;;;12.93;2.78;;;;;;;5.44;100.00;101730.97;4984198;28;20039;-72
2022/11/05 03:06:31;;;;;;;15.05;3.17;;;;;;;5.60;100.00;101725.81;4982581;28;20501;-73
2022/11/05 03:09:02;;;;;;;7.28;2.85;;;;;;;5.49;100.00;101718.66;4986693;28;20103;-72
2022/11/05 03:11:31;;;;;;;10.82;2.83;;;;;;;5.43;100.00;101723.78;4984642;28;20393;-72
2022/11/05 03:14:15;;;;;;;8.48;2.78;;;;;;;5.43;100.00;101721.94;4985643;28;20488;-73
2022/11/05 03:16:41;;;;;;;6.28;2.80;;;;;;;5.41;100.00;101717.66;4986867;28;20122;-73
2022/11/05 03:19:18;;;;;;;9.20;2.92;;;;;;;5.33;100.00;101712.94;4983654;28;20034;-73
2022/11/05 03:21:50;;;;;;;6.82;3.10;;;;;;;5.23;100.00;101709.34;4984540;28;20498;-73
2022/11/05 03:24:23;;;;;;;7.65;2.60;;;;;;;5.14;100.00;101703.91;4983251;28;20129;-73
2022/11/05 03:27:16;;;;;;;7.63;3.13;;;;;;;5.10;100.00;101703.34;4985203;28;20034;-73
2022/11/05 03:29:59;;;;;;;5.63;2.92;;;;;;;5.07;100.00;101702.78;4982773;28;20490;-73
2022/11/05 03:32:29;;;;;;;10.25;2.80;;;;;;;5.02;100.00;101703.19;4983143;28;20382;-72
2022/11/05 03:35:00;;;;;;;7.15;2.78;;;;;;;5.00;100.00;101701.59;4981188;28;20073;-73
2022/11/05 03:37:28;;;;;;;6.88;2.55;;;;;;;4.95;100.00;101707.47;4986666;28;20027;-73
2022/11/05 03:39:59;;;;;;;6.60;2.90;;;;;;;4.98;100.00;101709.03;4987431;28;20036;-73
2022/11/05 03:42:27;;;;;;;11.38;2.80;;;;;;;4.94;100.00;101713.03;4985651;28;20105;-73
2022/11/05 03:44:56;;;;;;;5.18;2.50;;;;;;;4.93;100.00;101705.88;4986833;28;20057;-73
2022/11/05 03:47:26;;;;;;;5.57;2.60;;;;;;;4.89;100.00;101718.88;4981379;28;20446;-73
2022/11/05 03:50:06;;;;;;;3.45;2.38;;;;;;;4.91;100.00;101729.63;4982662;28;20394;-73
2022/11/05 03:52:40;;;;;;;3.92;2.60;;;;;;;4.97;100.00;101743.47;4985677;28;20335;-73
2022/11/05 03:55:06;;;;;;;2.78;2.40;;;;;;;5.08;100.00;101735.19;4982303;28;20027;-73
2022/11/05 03:57:35;;;;;;;5.32;2.97;;;;;;;5.42;100.00;101738.38;4986459;28;20045;-72
2022/11/05 04:00:01;;;;;;;7.63;2.85;;;;;;;5.52;100.00;101733.81;4980007;28;20454;-73
2022/11/05 04:02:26;;;;;;;8.70;3.67;;;;;;;5.66;100.00;101744.25;4981519;28;20027;-73
2022/11/05 04:04:52;;;;;;;5.50;3.42;;;;;;;5.69;100.00;101742.09;4982470;28;20462;-72
2022/11/05 04:18:14;;;;;;;6.03;2.40;;;;;;;6.40;100.00;101737.97;4985772;28;20606;-73
2022/11/05 04:26:07;;;;;;;7.75;3.25;;;;;;;6.55;100.00;101728.28;4981936;28;20029;-72
2022/11/05 04:31:17;;;;;;;3.67;2.17;;;;;;;6.62;100.00;101729.44;4984732;28;20081;-72
2022/11/05 04:33:42;;;;;;;6.30;2.78;;;;;;;6.65;100.00;101731.84;4984566;28;20034;-72
2022/11/05 04:36:07;;;;;;;5.28;2.70;;;;;;;6.63;100.00;101731.97;4984966;28;20077;-71
2022/11/05 04:38:33;;;;;;;6.68;2.78;;;;;;;6.63;100.00;101731.97;4984192;28;20117;-71
2022/11/05 04:41:15;;;;;;;14.13;2.67;;;;;;;6.62;100.00;101729.44;4983406;28;20030;-71
2022/11/05 04:43:40;;;;;;;8.98;2.70;;;;;;;6.61;100.00;101735.84;4983739;28;20034;-71
2022/11/05 04:46:06;;;;;;;5.13;2.13;;;;;;;6.57;100.00;101738.03;4984679;28;20026;-71
2022/11/05 04:48:31;;;;;;;3.88;2.53;;;;;;;6.54;100.00;101732.03;4982177;28;20459;-71
2022/11/05 04:50:57;;;;;;;1.88;1.77;;;;;;;6.54;100.00;101737.47;4979113;28;20121;-71
2022/11/05 04:53:22;;;;;;;5.38;2.05;;;;;;;6.44;100.00;101737.53;4997928;28;20038;-72
2022/11/05 04:55:47;;;;;;;3.97;2.35;;;;;;;6.41;100.00;101734.25;4986442;28;20037;-71
2022/11/05 04:58:13;;;;;;;7.03;2.45;;;;;;;6.35;100.00;101740.28;4980811;28;20061;-71
2022/11/05 05:00:38;;;;;;;4.13;2.38;;;;;;;6.27;100.00;101742.88;4982703;28;20031;-72
2022/11/05 05:03:03;;;;;;;3.28;2.10;;;;;;;6.24;100.00;101752.19;4980710;28;20034;-71
2022/11/05 05:05:29;;;;;;;4.20;2.35;;;;;;;6.15;100.00;101747.63;4986387;28;20042;-72
2022/11/05 05:07:59;;;;;;;5.00;2.40;;;;;;;6.09;100.00;101745.50;4985990;28;20033;-72
2022/11/05 05:10:24;;;;;;;3.50;1.98;;;;;;;6.04;100.00;101746.94;4978195;28;20034;-72
2022/11/05 05:12:50;;;;;;;2.78;1.95;;;;;;;5.98;100.00;101751.09;4983163;28;20030;-72
2022/11/05 05:15:15;;;;;;;3.38;1.88;;;;;;;5.97;100.00;101753.94;4982575;28;20122;-71
2022/11/05 05:17:40;;;;;;;4.82;2.35;;;;;;;6.03;100.00;101751.53;4983077;28;20401;-72
2022/11/05 05:22:52;;;;;;;4.63;2.53;;;;;;;6.13;100.00;101743.31;4985617;28;20037;-72
2022/11/05 05:25:17;;;;;;;2.83;2.35;;;;;;;6.12;100.00;101752.50;4980320;28;20100;-72
2022/11/05 05:27:42;;;;;;;8.93;3.08;;;;;;;6.15;100.00;101752.22;4985223;28;20149;-72
2022/11/05 05:30:08;;;;;;;6.78;3.05;;;;;;;6.11;100.00;101756.22;4983344;28;20453;-72
2022/11/05 05:32:33;;;;;;;6.25;3.20;;;;;;;6.09;100.00;101747.38;4985217;28;20032;-71
2022/11/05 05:34:59;;;;;;;8.05;3.63;;;;;;;6.19;100.00;101753.66;4984666;28;20691;-71
2022/11/05 05:37:24;;;;;;;8.25;4.25;;;;;;;6.34;100.00;101757.59;4980788;28;20477;-72
2022/11/05 05:39:49;;;;;;;8.25;4.50;;;;;;;6.30;100.00;101756.19;4982829;28;20138;-72
2022/11/05 05:42:15;;;;;;;6.95;5.35;;;;;;;6.30;100.00;101748.88;4981737;28;20077;-71
2022/11/05 05:44:40;;;;;;;11.57;6.35;;;;;;;6.40;100.00;101755.16;4983746;28;20037;-72
2022/11/05 05:47:05;;;;;;;10.65;7.03;;;;;;;6.34;100.00;101742.13;4984132;28;20035;-72
2022/11/05 05:49:31;;;;;;;14.60;6.93;;;;;;;6.37;100.00;101752.75;4984308;28;20038;-71
2022/11/05 05:51:56;;;;;;;14.70;7.65;;;;;;;6.44;100.00;101758.41;4981814;28;20538;-72
2022/11/05 05:54:21;;;;;;;12.32;7.50;;;;;;;6.45;100.00;101761.00;4985998;28;20081;-72
2022/11/05 05:56:48;;;;;;;13.05;7.13;;;;;;;6.50;100.00;101757.81;4989263;28;20030;-73
2022/11/05 05:59:13;;;;;;;15.73;8.35;;;;;;;6.46;100.00;101756.44;4984738;28;20052;-74
2022/11/05 06:01:39;;;;;;;11.30;7.85;;;;;;;6.49;100.00;101756.13;4987982;28;20446;-73
2022/11/05 06:04:04;;;;;;;13.27;7.05;;;;;;;6.41;100.00;101754.13;4986329;28;20031;-73
2022/11/05 06:06:29;;;;;;;14.20;7.82;;;;;;;6.38;100.00;101764.47;5001467;28;20026;-73
2022/11/05 06:08:55;;;;;;;20.23;7.75;;;;;;;6.35;100.00;101764.78;4983436;28;20805;-73
2022/11/05 06:11:21;;;;;;;19.73;8.25;;;;;;;6.32;100.00;101759.63;4987548;28;20271;-73
2022/11/05 06:13:47;;;;;;;16.27;7.90;;;;;;;6.28;100.00;101760.91;4984682;28;20080;-73
2022/11/05 06:16:12;;;;;;;16.90;8.80;;;;;;;6.33;100.00;101764.03;4984620;28;20038;-73
2022/11/05 06:18:38;;;;;;;19.92;8.60;;;;;;;6.30;100.00;101773.34;4986222;28;20100;-73
2022/11/05 06:21:12;;;;;;;16.83;8.75;;;;;;;6.23;100.00;101766.81;4984987;28;20042;-73
2022/11/05 06:23:40;;;;;;;16.23;7.97;;;;;;;6.21;100.00;101773.38;4989573;28;20400;-73
2022/11/05 06:26:08;;;;;;;25.02;8.10;;;;;;;6.14;100.00;101775.81;4987880;28;20034;-73
2022/11/05 06:28:33;;;;;;;16.45;8.63;;;;;;;6.13;100.00;101785.00;4982863;28;20038;-72
2022/11/05 06:30:59;;;;;;;18.20;7.80;;;;;;;6.13;100.00;101781.41;4985074;28;20034;-73
2022/11/05 06:33:25;;;;;;;14.07;8.13;;;;;;;6.10;100.00;101770.84;4982274;28;20038;-73
2022/11/05 06:35:51;;;;;;;17.73;8.50;;;;;;;6.06;100.00;101780.28;4986775;28;20501;-73
2022/11/05 06:38:17;;;;;;;21.17;8.60;;;;;;;6.06;100.00;101767.56;4987157;28;20034;-73
2022/11/05 06:40:42;;;;;;;18.70;8.02;;;;;;;6.10;100.00;101777.13;4983793;28;20548;-73
2022/11/05 06:43:07;;;;;;;18.52;8.80;;;;;;;6.08;100.00;101770.13;4985714;28;20037;-73
2022/11/05 06:45:33;;;;;;;15.27;8.48;;;;;;;6.05;100.00;101781.28;4983075;28;20362;-73
2022/11/05 06:47:58;;;;;;;23.00;8.70;;;;;;;6.08;100.00;101783.72;4986813;28;20029;-73
2022/11/05 06:50:25;;;;;;;13.73;8.32;;;;;;;6.08;100.00;101783.72;4982767;28;20240;-73
2022/11/05 06:52:57;;;;;;;14.50;8.80;;;;;;;6.05;100.00;101779.44;4990088;28;20042;-73
2022/11/05 06:55:24;;;;;;;16.45;8.20;;;;;;;6.06;100.00;101783.00;4983816;28;20133;-73
2022/11/05 06:57:50;;;;;;;;;;;;;;;6.06;100.00;101783.88;4986060;28;20027;-73
2022/11/05 07:00:17;;;;;;;13.07;8.18;;;;;;;6.06;100.00;101775.72;4983901;28;19918;-73
2022/11/05 07:02:42;;;;;;;13.13;7.80;;;;;;;6.04;100.00;101785.03;4985717;28;20038;-73
2022/11/05 07:05:10;;;;;;;18.05;7.55;;;;;;;6.05;100.00;101795.75;4983940;28;20127;-73
2022/11/05 07:07:36;;;;;;;19.85;8.77;;;;;;;6.07;100.00;101782.88;4988892;28;20565;-73
2022/11/05 07:10:01;;;;;;;14.02;8.13;;;;;;;6.05;100.00;101789.44;4985517;28;20068;-73
2022/11/05 07:12:26;;;;;;;20.15;8.70;;;;;;;6.05;100.00;101786.72;4982471;28;20026;-73
2022/11/05 07:14:51;;;;;;;13.25;7.65;;;;;;;6.04;100.00;101788.59;4985208;28;20031;-73
2022/11/05 07:17:17;;;;;;;12.23;7.68;;;;;;;6.03;100.00;101791.47;4985127;28;20068;-73
2022/11/05 07:19:43;;;;;;;16.83;8.00;;;;;;;6.13;100.00;101797.72;4982936;28;20074;-73
2022/11/05 07:22:08;;;;;;;20.23;9.10;;;;;;;6.15;100.00;101793.03;4983671;28;20030;-73
2022/11/05 07:24:33;;;;;;;20.92;8.85;;;;;;;6.22;100.00;101791.41;4986556;28;20101;-73
2022/11/05 07:26:58;;;;;;;17.33;8.05;;;;;;;6.23;100.00;101801.28;4983134;28;20026;-73
2022/11/05 07:29:24;;;;;;;16.38;8.13;;;;;;;6.26;100.00;101803.72;4990150;28;20030;-73
2022/11/05 07:31:49;;;;;;;14.95;8.18;;;;;;;6.21;100.00;101809.63;4983920;28;20045;-74
2022/11/05 07:34:14;;;;;;;21.38;8.30;;;;;;;6.31;100.00;101799.56;4985616;28;20504;-74
2022/11/05 07:36:40;;;;;;;14.07;7.95;;;;;;;6.27;100.00;101805.44;4985821;28;20022;-73
2022/11/05 07:39:05;;;;;;;15.02;8.32;;;;;;;6.36;100.00;101808.13;4982653;28;20034;-73
2022/11/05 07:41:30;;;;;;;19.17;8.77;;;;;;;6.39;100.00;101807.84;4986142;28;20497;-73
2022/11/05 07:43:56;;;;;;;19.95;8.73;;;;;;;6.50;100.00;101813.13;4983768;28;20362;-73
2022/11/05 07:46:21;;;;;;;16.40;8.23;;;;;;;6.47;100.00;101812.56;4988975;28;20039;-73
2022/11/05 07:48:46;;;;;;;15.90;8.60;;;;;;;6.52;100.00;101805.66;4983134;28;20035;-73
2022/11/05 07:51:11;;;;;;;19.90;9.02;;;;;;;6.52;100.00;101808.38;5000039;28;20045;-73
2022/11/05 07:53:37;;;;;;;19.27;8.70;;;;;;;6.58;100.00;101809.66;4986558;28;20434;-73
2022/11/05 07:56:02;;;;;;;27.95;9.70;;;;;;;6.80;100.00;101812.88;4984806;28;20038;-73
2022/11/05 07:58:27;;;;;;;26.60;8.75;;;;;;;6.77;100.00;101805.00;4970888;28;20080;-73
2022/11/05 08:00:53;;;;;;;17.65;8.38;;;;;;;6.77;100.00;101809.56;4982952;28;20085;-74
2022/11/05 08:03:18;;;;;;;25.60;8.35;;;;;;;6.80;100.00;101810.16;4982837;28;20049;-73
2022/11/05 08:05:46;;;;;;;22.73;8.88;;;;;;;6.94;100.00;101808.81;4976447;28;20047;-73
2022/11/05 08:08:14;;;;;;;11.93;7.90;;;;;;;7.11;100.00;101810.72;4985473;28;20500;-73
2022/11/05 08:10:39;;;;;;;14.98;8.82;;;;;;;7.11;100.00;101811.56;4980197;28;20035;-73
2022/11/05 08:13:06;;;;;;;19.67;9.80;;;;;;;7.24;100.00;101808.50;4982652;28;20042;-73
2022/11/05 08:15:32;;;;;;;18.02;10.15;;;;;;;7.25;100.00;101810.19;4972012;28;20444;-74
2022/11/05 08:18:06;;;;;;;32.70;10.32;;;;;;;7.38;100.00;101810.72;4968790;28;20039;-73
2022/11/05 08:20:33;;;;;;;19.25;8.43;;;;;;;7.52;100.00;101808.31;4986224;28;20050;-74
2022/11/05 08:22:58;;;;;;;26.77;9.43;;;;;;;7.68;100.00;101803.03;4981918;28;20076;-74
2022/11/05 08:25:24;;;;;;;17.38;8.93;;;;;;;7.72;100.00;101807.16;4982222;28;20454;-74
2022/11/05 08:28:00;;;;;;;20.83;9.13;;;;;;;7.76;100.00;101807.69;4982380;28;20473;-74
2022/11/05 08:30:27;;;;;;;24.80;9.43;;;;;;;7.89;100.00;101809.03;4980495;28;20494;-74
2022/11/05 08:32:57;;;;;;;15.73;8.13;;;;;;;8.00;100.00;101802.47;4982467;28;20101;-73
2022/11/05 08:35:22;;;;;;;13.77;8.32;;;;;;;8.08;100.00;101810.72;4982891;28;20038;-74
2022/11/05 08:37:48;;;;;;;16.58;8.57;;;;;;;8.13;100.00;101808.38;4980670;28;20153;-73
2022/11/05 08:40:13;;;;;;;23.20;8.30;;;;;;;8.22;100.00;101810.19;4982424;28;20544;-74
2022/11/05 08:42:38;;;;;;;15.02;7.22;;;;;;;8.36;100.00;101804.16;4984613;28;20034;-73
2022/11/05 08:45:04;;;;;;;20.30;8.63;;;;;;;8.42;100.00;101807.09;4982830;28;20030;-73
2022/11/05 08:47:29;;;;;;;16.63;7.93;;;;;;;8.59;100.00;101808.91;4998620;28;20144;-73
2022/11/05 08:49:54;;;;;;;19.95;8.15;;;;;;;8.77;100.00;101806.13;4983021;28;20065;-73
2022/11/05 08:52:20;;;;;;;15.00;7.05;;;;;;;8.89;100.00;101813.00;4986020;28;20022;-73
2022/11/05 08:54:45;;;;;;;15.68;7.28;;;;;;;9.06;100.00;101820.28;4980411;28;20037;-73
2022/11/05 08:57:10;;;;;;;10.98;7.65;;;;;;;9.08;99.81;101815.50;4982389;28;20042;-74
2022/11/05 08:59:36;;;;;;;16.70;7.68;;;;;;;9.19;99.32;101818.78;4981141;28;20482;-73
2022/11/05 09:02:01;;;;;;;14.80;8.35;;;;;;;9.35;98.96;101810.66;4985399;28;20030;-74
2022/11/05 09:04:26;;;;;;;13.57;7.63;;;;;;;9.47;97.66;101806.59;4984756;28;20442;-73
2022/11/05 09:06:51;;;;;;;9.73;6.85;;;;;;;9.61;98.06;101805.94;4983906;28;20030;-73
2022/11/05 09:09:17;;;;;;;10.43;6.65;;;;;;;9.83;96.47;101802.56;4985305;28;20057;-73
2022/11/05 09:11:42;;;;;;;18.37;7.80;;;;;;;9.92;96.12;101811.66;4979742;28;20517;-73
2022/11/05 09:14:08;;;;;;;19.17;6.47;;;;;;;10.01;94.53;101811.47;4981999;28;20035;-73
2022/11/05 09:16:35;;;;;;;17.53;6.47;;;;;;;10.06;93.74;101813.72;4979318;28;20504;-73
2022/11/05 09:19:03;;;;;;;13.70;6.63;;;;;;;10.17;93.84;101817.00;4979074;28;20038;-73
2022/11/05 09:21:28;;;;;;;11.55;6.13;;;;;;;10.11;93.89;101814.94;4984652;28;20084;-73
2022/11/05 09:23:54;;;;;;;9.57;6.23;;;;;;;10.10;94.62;101823.31;4981537;28;20039;-73
2022/11/05 09:26:19;;;;;;;12.20;7.00;;;;;;;10.05;94.50;101821.13;4984097;28;20037;-73
2022/11/05 09:28:44;;;;;;;12.18;6.82;;;;;;;10.12;94.56;101821.25;4983752;28;20128;-73
2022/11/05 09:31:10;;;;;;;15.43;6.90;;;;;;;10.07;94.68;101826.38;4984494;28;20029;-73
2022/11/05 09:33:38;;;;;;;11.20;6.33;;;;;;;10.10;94.17;101839.75;4983818;28;20249;-73
2022/11/05 09:36:04;;;;;;;12.90;6.25;;;;;;;10.13;93.19;101840.25;4986163;28;20276;-72
2022/11/05 09:38:36;;;;;;;10.93;5.00;;;;;;;10.15;91.60;101840.09;4983544;28;20278;-73
2022/11/05 09:41:07;;;;;;;10.77;5.68;;;;;;;10.22;92.54;101832.91;4985904;28;20290;-73
2022/11/05 09:43:39;;;;;;;9.20;6.05;;;;;;;10.22;92.62;101830.16;4984406;28;20033;-73
2022/11/05 09:46:27;;;;;;;10.63;5.93;;;;;;;10.36;91.74;101843.19;4987308;28;20034;-73
2022/11/05 09:49:04;;;;;;;15.80;6.55;;;;;;;10.33;91.92;101847.13;4984314;28;20559;-72
2022/11/05 09:51:30;;;;;;;12.95;6.45;;;;;;;10.31;91.52;101837.38;4980529;28;20026;-73
2022/11/05 09:53:58;;;;;;;15.63;5.37;;;;;;;10.32;91.64;101841.81;4984466;28;20391;-73
2022/11/05 09:56:30;;;;;;;12.63;5.93;;;;;;;10.34;90.96;101829.66;4984135;28;20026;-73
2022/11/05 09:59:00;;;;;;;11.43;6.03;;;;;;;10.35;91.75;101839.56;4984772;28;20030;-73
2022/11/05 10:01:33;;;;;;;11.07;5.85;;;;;;;10.35;92.25;101833.25;4982495;28;20030;-73
2022/11/05 10:04:01;;;;;;;12.70;5.70;;;;;;;10.38;92.17;101832.91;4985963;28;20037;-73
2022/11/05 10:06:27;;;;;;;7.85;4.80;;;;;;;10.48;90.79;101828.97;4983658;28;20034;-72
2022/11/05 10:09:18;;;;;;;11.10;5.10;;;;;;;10.53;90.23;101837.53;4984053;28;20036;-73
2022/11/05 10:12:04;;;;;;;14.30;4.93;;;;;;;10.61;90.54;101833.91;4988106;28;20038;-72
2022/11/05 10:14:54;;;;;;;12.60;5.60;;;;;;;10.69;89.85;101847.59;4982195;28;20486;-72
2022/11/05 10:17:23;;;;;;;15.43;5.25;;;;;;;10.78;90.92;101835.59;4987915;28;20019;-72
2022/11/05 10:20:08;;;;;;;7.85;4.75;;;;;;;10.70;89.96;101841.09;4986716;28;20474;-72
2022/11/05 10:22:35;;;;;;;10.70;5.00;;;;;;;10.72;89.72;101830.81;4986168;28;20036;-72
2022/11/05 10:25:00;;;;;;;16.58;4.78;;;;;;;10.72;89.04;101828.09;4979201;28;20148;-73
2022/11/05 10:27:35;;;;;;;10.10;4.53;;;;;;;10.73;90.45;101832.53;4985177;28;20122;-72
2022/11/05 10:30:00;;;;;;;11.75;5.90;;;;;;;10.68;89.58;101835.78;4983315;28;20045;-73
2022/11/05 10:32:34;;;;;;;11.43;5.50;;;;;;;10.65;89.97;101836.13;4984199;28;20027;-73
2022/11/05 10:35:02;;;;;;;11.20;4.55;;;;;;;10.62;90.68;101836.47;4981518;28;20521;-73
2022/11/05 10:37:29;;;;;;;12.55;4.97;;;;;;;10.69;90.09;101839.38;4985285;28;20482;-72
2022/11/05 10:39:54;;;;;;;13.35;4.80;;;;;;;10.76;89.48;101838.50;4983818;28;20034;-73
2022/11/05 10:42:54;;;;;;;11.98;4.85;;;;;;;10.72;89.05;101842.63;4979456;28;20429;-72
2022/11/05 10:45:25;;;;;;;11.10;4.90;;;;;;;10.80;88.21;101849.97;4977147;28;20115;-73
2022/11/05 10:48:31;;;;;;;11.52;5.00;;;;;;;10.98;88.48;101839.66;4981828;28;20035;-73
2022/11/05 10:50:56;;;;;;;15.25;4.72;;;;;;;11.40;85.98;101843.78;5000145;28;20042;-73
2022/11/05 10:53:31;;;;;;;8.80;4.37;;;;;;;11.41;85.26;101839.13;4988813;28;20041;-73
2022/11/05 10:55:57;;;;;;;16.10;5.20;;;;;;;11.59;85.88;101837.88;4982568;28;20553;-73
2022/11/05 10:58:29;;;;;;;9.83;5.00;;;;;;;11.68;85.00;101835.97;4996022;28;20034;-73
2022/11/05 11:00:55;;;;;;;9.38;4.15;;;;;;;11.78;84.56;101842.94;4980169;28;20401;-73
2022/11/05 11:03:33;;;;;;;15.57;4.93;;;;;;;11.92;83.09;101841.28;4980797;28;20041;-73
2022/11/05 11:06:01;;;;;;;11.07;4.50;;;;;;;11.82;83.38;101835.19;4984353;28;20027;-73
2022/11/05 11:08:27;;;;;;;10.65;4.85;;;;;;;11.58;82.75;101821.59;4983417;28;20371;-73
2022/11/05 11:10:58;;;;;;;13.53;4.23;;;;;;;11.55;83.95;101830.16;4986878;28;20034;-73
2022/11/05 11:13:27;;;;;;;15.35;4.82;;;;;;;11.45;84.27;101840.50;4987363;28;20044;-73
2022/11/05 11:15:54;;;;;;;12.23;4.93;;;;;;;11.21;83.71;101835.97;4983698;28;20441;-73
2022/11/05 11:18:35;;;;;;;8.85;4.40;;;;;;;11.16;84.00;101840.28;4982293;28;20022;-72
2022/11/05 11:21:18;;;;;;;12.38;4.70;;;;;;;11.06;84.17;101835.00;4980632;28;20173;-74
2022/11/05 11:23:59;;;;;;;16.85;5.25;;;;;;;11.01;83.62;101833.81;4984148;28;20043;-73
2022/11/05 11:26:28;;;;;;;11.68;4.63;;;;;;;11.08;84.57;101838.44;4980255;28;20478;-73
2022/11/05 11:29:10;;;;;;;9.70;4.40;;;;;;;11.14;84.60;101836.84;4987333;28;20117;-73
2022/11/05 11:31:37;;;;;;;13.02;4.93;;;;;;;11.13;84.03;101830.53;4982224;28;20031;-73
2022/11/05 11:34:06;;;;;;;11.85;5.47;;;;;;;11.09;83.14;101828.28;4983725;28;20515;-73
2022/11/05 11:36:38;;;;;;;13.40;5.22;;;;;;;11.18;83.25;101817.16;4986378;28;20085;-73
2022/11/05 11:39:05;;;;;;;11.77;5.45;;;;;;;11.36;84.33;101825.13;4984085;28;20037;-73
2022/11/05 11:41:40;;;;;;;14.88;5.28;;;;;;;11.64;82.55;101829.97;4986562;28;20541;-73
2022/11/05 11:44:13;;;;;;;13.20;5.68;;;;;;;11.79;82.82;101817.19;4985236;28;20030;-74
2022/11/05 11:46:39;;;;;;;14.43;5.05;;;;;;;11.86;81.30;101826.41;4982561;28;20066;-73
2022/11/05 11:49:05;;;;;;;12.13;4.70;;;;;;;11.88;81.58;101832.56;4976253;28;20041;-73
2022/11/05 11:51:39;;;;;;;9.13;4.33;;;;;;;11.89;82.31;101826.03;4983819;28;20031;-73
2022/11/05 11:54:16;;;;;;;15.27;5.43;;;;;;;11.94;81.50;101833.72;4978157;28;20041;-74
2022/11/05 11:56:47;;;;;;;9.40;4.40;;;;;;;11.79;81.34;101832.81;4982635;28;20034;-73
2022/11/05 11:59:24;;;;;;;11.32;4.10;;;;;;;11.87;81.40;101832.75;4980542;28;20043;-73
2022/11/05 12:02:34;;;;;;;17.40;4.28;;;;;;;11.84;81.22;101827.63;4982119;28;20029;-73
2022/11/05 12:05:08;;;;;;;7.68;3.55;;;;;;;11.83;80.29;101835.00;4986152;28;20512;-73
2022/11/05 12:07:52;;;;;;;4.68;3.20;;;;;;;11.73;80.47;101820.66;4981729;28;20528;-73
2022/11/05 12:10:30;;;;;;;13.63;3.60;;;;;;;11.66;80.99;101818.81;4981002;28;20532;-73
2022/11/05 12:13:13;;;;;;;8.38;3.00;;;;;;;11.64;80.55;101823.63;4989482;28;21182;-74
2022/11/05 12:15:54;;;;;;;8.27;3.15;;;;;;;11.75;81.48;101820.47;4985861;28;20030;-73
2022/11/05 12:18:39;;;;;;;4.68;3.03;;;;;;;11.63;80.10;101811.78;4987070;28;20034;-74